Time;durP1;ratioP1;P1;durP2;ratioP2;P2;SDS_P1;SDS_P2;PMS_P1;PMS_P2;Temp;Humidity;BMP_temperature;BMP_pressure;BME280_temperature;BME280_humidity;BME280_pressure;Samples;Min_cycle;Max_cycle;Signal;HPM_P1;HPM_P2
2021/09/01 00:01:21;;;;;;;4.87;3.95;;;;;;;;;;143733;603;46012;-88
2021/09/01 00:03:53;;;;;;;7.57;3.80;;;;;;;;;;143734;578;46014;-87
2021/09/01 00:06:20;;;;;;;9.75;4.10;;;;;;;;;;143737;601;46020;-88
2021/09/01 00:08:52;;;;;;;10.40;3.97;;;;;;;;;;143733;581;46014;-87
2021/09/01 00:11:23;;;;;;;4.67;3.83;;;;;;;;;;143733;566;46012;-87
2021/09/01 00:13:50;;;;;;;5.87;3.67;;;;;;;;;;143736;582;46020;-85
2021/09/01 00:16:27;;;;;;;8.15;4.70;;;;;;;;;;143737;636;46012;-86
2021/09/01 00:18:56;;;;;;;5.00;3.80;;;;;;;;;;143732;574;47023;-87
2021/09/01 00:21:23;;;;;;;9.60;3.90;;;;;;;;;;143736;594;46020;-86
2021/09/01 00:23:52;;;;;;;7.72;4.40;;;;;;;;;;143736;608;46021;-89
2021/09/01 00:26:19;;;;;;;8.32;3.85;;;;;;;;;;143737;586;46021;-87
2021/09/01 00:28:47;;;;;;;6.78;3.87;;;;;;;;;;143732;595;46014;-86
2021/09/01 00:31:15;;;;;;;5.57;3.78;;;;;;;;;;143735;572;46012;-88
2021/09/01 00:33:44;;;;;;;11.93;3.92;;;;;;;;;;143734;591;46015;-88
2021/09/01 00:36:11;;;;;;;6.62;3.72;;;;;;;;;;143736;647;46014;-89
2021/09/01 00:38:38;;;;;;;7.28;3.40;;;;;;;;;;143733;659;47022;-89
2021/09/01 00:41:04;;;;;;;9.93;3.60;;;;;;;;;;143732;655;46012;-89
2021/09/01 00:43:31;;;;;;;7.50;3.70;;;;;;;;;;143736;576;46020;-88
2021/09/01 00:45:58;;;;;;;5.57;3.65;;;;;;;;;;143738;581;46020;-88
2021/09/01 00:48:26;;;;;;;6.07;3.10;;;;;;;;;;143733;640;47023;-89
2021/09/01 00:50:58;;;;;;;6.10;3.78;;;;;;;;;;143733;613;46012;-89
2021/09/01 00:53:35;;;;;;;4.07;3.42;;;;;;;;;;143736;671;46020;-88
2021/09/01 00:56:02;;;;;;;4.60;3.62;;;;;;;;;;143739;585;46018;-87
2021/09/01 00:58:35;;;;;;;5.07;3.50;;;;;;;;;;143735;611;46016;-89
2021/09/01 01:01:15;;;;;;;4.65;3.60;;;;;;;;;;143732;619;47012;-87
2021/09/01 01:03:51;;;;;;;3.72;3.25;;;;;;;;;;143733;572;46021;-89
2021/09/01 01:06:27;;;;;;;5.12;3.42;;;;;;;;;;143735;583;46012;-87
2021/09/01 01:08:54;;;;;;;7.47;3.55;;;;;;;;;;143731;581;47022;-89
2021/09/01 01:11:22;;;;;;;5.85;3.78;;;;;;;;;;143733;586;46012;-87
2021/09/01 01:13:52;;;;;;;12.68;3.75;;;;;;;;;;143734;641;46020;-88
2021/09/01 01:16:26;;;;;;;4.68;3.30;;;;;;;;;;143733;612;46023;-87
2021/09/01 01:18:56;;;;;;;7.32;4.53;;;;;;;;;;143731;565;47020;-88
2021/09/01 01:21:28;;;;;;;5.18;4.10;;;;;;;;;;143731;582;46012;-88
2021/09/01 01:24:03;;;;;;;8.38;5.40;;;;;;;;;;143732;564;46020;-90
2021/09/01 01:26:30;;;;;;;7.50;4.18;;;;;;;;;;143733;596;46012;-88
2021/09/01 01:29:02;;;;;;;9.10;5.60;;;;;;;;;;143734;580;45022;-90
2021/09/01 01:31:29;;;;;;;6.93;5.72;;;;;;;;;;143732;589;46012;-88
2021/09/01 01:33:57;;;;;;;6.97;4.22;;;;;;;;;;143732;610;47021;-89
2021/09/01 01:36:25;;;;;;;12.50;4.22;;;;;;;;;;143734;622;46012;-88
2021/09/01 01:38:52;;;;;;;8.30;4.47;;;;;;;;;;143731;641;47049;-89
2021/09/01 01:41:22;;;;;;;4.68;3.85;;;;;;;;;;143732;567;46012;-88
2021/09/01 01:43:50;;;;;;;7.95;4.00;;;;;;;;;;143735;597;46020;-89
2021/09/01 01:46:17;;;;;;;8.52;3.58;;;;;;;;;;143734;573;46012;-86
2021/09/01 01:48:43;;;;;;;17.50;4.30;;;;;;;;;;143732;573;46020;-88
2021/09/01 01:51:10;;;;;;;9.80;3.95;;;;;;;;;;143732;592;46020;-88
2021/09/01 01:53:37;;;;;;;6.28;4.18;;;;;;;;;;143733;566;46020;-91
2021/09/01 01:56:05;;;;;;;7.12;3.92;;;;;;;;;;143732;580;48021;-88
2021/09/01 01:58:32;;;;;;;5.03;3.60;;;;;;;;;;143733;595;46020;-89
2021/09/01 02:00:59;;;;;;;8.70;3.50;;;;;;;;;;143731;627;46012;-88
2021/09/01 02:03:26;;;;;;;6.12;4.07;;;;;;;;;;143733;580;46014;-88
2021/09/01 02:05:53;;;;;;;7.22;3.92;;;;;;;;;;143735;631;46012;-90
2021/09/01 02:08:20;;;;;;;7.37;3.72;;;;;;;;;;143731;608;46022;-87
2021/09/01 02:10:47;;;;;;;4.20;3.28;;;;;;;;;;143731;595;46012;-87
2021/09/01 02:13:13;;;;;;;8.00;3.70;;;;;;;;;;143733;578;47020;-88
2021/09/01 02:15:40;;;;;;;9.18;7.35;;;;;;;;;;143735;583;46013;-89
2021/09/01 02:18:07;;;;;;;11.48;8.30;;;;;;;;;;143732;564;46023;-88
2021/09/01 02:20:34;;;;;;;12.77;7.25;;;;;;;;;;143734;608;46012;-89
2021/09/01 02:23:01;;;;;;;12.82;6.60;;;;;;;;;;143734;637;46020;-89
2021/09/01 02:25:29;;;;;;;15.07;6.95;;;;;;;;;;143735;600;46013;-86
2021/09/01 02:27:56;;;;;;;12.93;6.03;;;;;;;;;;143732;599;46022;-89
2021/09/01 02:30:23;;;;;;;10.23;4.35;;;;;;;;;;143731;579;46013;-88
2021/09/01 02:32:50;;;;;;;8.45;3.75;;;;;;;;;;143730;572;46015;-88
2021/09/01 02:35:20;;;;;;;5.05;3.58;;;;;;;;;;143735;574;46012;-86
2021/09/01 02:37:51;;;;;;;9.07;3.47;;;;;;;;;;143731;653;47022;-89
2021/09/01 02:40:22;;;;;;;6.30;3.60;;;;;;;;;;143735;614;45921;-89
2021/09/01 02:42:49;;;;;;;10.90;4.20;;;;;;;;;;143734;585;46020;-88
2021/09/01 02:45:16;;;;;;;9.20;4.28;;;;;;;;;;143737;626;45021;-89
2021/09/01 02:47:45;;;;;;;9.00;4.25;;;;;;;;;;143732;593;46044;-90
2021/09/01 02:50:13;;;;;;;7.55;4.10;;;;;;;;;;143732;589;46012;-89
2021/09/01 02:52:43;;;;;;;6.93;3.78;;;;;;;;;;143734;614;46020;-89
2021/09/01 02:55:10;;;;;;;8.18;3.80;;;;;;;;;;143733;569;46013;-89
2021/09/01 02:57:36;;;;;;;4.90;3.58;;;;;;;;;;143732;582;46022;-87
2021/09/01 03:00:05;;;;;;;9.90;4.22;;;;;;;;;;143732;566;46012;-89
2021/09/01 03:02:32;;;;;;;5.93;3.50;;;;;;;;;;143733;579;46015;-90
2021/09/01 03:04:59;;;;;;;5.05;3.37;;;;;;;;;;143734;644;46012;-88
2021/09/01 03:07:27;;;;;;;3.80;3.42;;;;;;;;;;143733;573;47020;-90
2021/09/01 03:09:57;;;;;;;7.35;3.53;;;;;;;;;;143734;620;46020;-89
2021/09/01 03:12:25;;;;;;;5.93;4.00;;;;;;;;;;143734;603;46035;-89
2021/09/01 03:14:52;;;;;;;5.60;3.45;;;;;;;;;;143734;573;46034;-89
2021/09/01 03:17:19;;;;;;;5.65;3.30;;;;;;;;;;143733;607;46021;-88
2021/09/01 03:19:46;;;;;;;11.80;3.70;;;;;;;;;;143734;586;46012;-88
2021/09/01 03:22:12;;;;;;;7.68;4.78;;;;;;;;;;143733;566;46020;-87
2021/09/01 03:24:40;;;;;;;8.38;4.35;;;;;;;;;;143734;581;46013;-89
2021/09/01 03:27:07;;;;;;;7.57;4.28;;;;;;;;;;143730;605;47022;-87
2021/09/01 03:29:34;;;;;;;8.18;4.50;;;;;;;;;;143734;594;46012;-89
2021/09/01 03:32:00;;;;;;;6.70;3.60;;;;;;;;;;143733;603;46021;-89
2021/09/01 03:34:43;;;;;;;7.57;3.75;;;;;;;;;;143737;617;47020;-89
2021/09/01 03:37:20;;;;;;;5.72;3.70;;;;;;;;;;143736;589;45917;-89
2021/09/01 03:39:51;;;;;;;7.68;4.32;;;;;;;;;;143735;604;46014;-89
2021/09/01 03:42:18;;;;;;;6.72;4.32;;;;;;;;;;143736;569;46020;-90
2021/09/01 03:44:44;;;;;;;10.77;5.05;;;;;;;;;;143734;584;46013;-86
2021/09/01 03:47:11;;;;;;;8.20;4.45;;;;;;;;;;143731;592;46014;-87
2021/09/01 03:49:38;;;;;;;10.98;3.90;;;;;;;;;;143733;566;46014;-87
2021/09/01 03:52:05;;;;;;;9.40;4.68;;;;;;;;;;143733;587;47020;-88
2021/09/01 03:54:33;;;;;;;14.98;4.05;;;;;;;;;;143735;567;46012;-89
2021/09/01 03:57:00;;;;;;;9.45;4.65;;;;;;;;;;143733;569;46022;-89
2021/09/01 03:59:27;;;;;;;8.75;4.22;;;;;;;;;;143732;603;46012;-89
2021/09/01 04:01:54;;;;;;;14.02;5.00;;;;;;;;;;143732;629;46021;-90
2021/09/01 04:04:20;;;;;;;8.35;5.10;;;;;;;;;;143737;571;46020;-88
2021/09/01 04:06:47;;;;;;;11.30;5.15;;;;;;;;;;143733;587;46022;-90
2021/09/01 04:09:14;;;;;;;7.37;4.62;;;;;;;;;;143729;583;46012;-89
2021/09/01 04:11:41;;;;;;;9.18;5.43;;;;;;;;;;143731;564;46020;-89
2021/09/01 04:14:08;;;;;;;9.73;5.00;;;;;;;;;;143733;627;46012;-88
2021/09/01 04:16:34;;;;;;;13.07;4.87;;;;;;;;;;143733;571;46022;-89
2021/09/01 04:19:03;;;;;;;12.85;4.60;;;;;;;;;;143731;587;46012;-88
2021/09/01 04:21:30;;;;;;;8.80;4.43;;;;;;;;;;143733;588;47020;-88
2021/09/01 04:23:57;;;;;;;11.88;4.37;;;;;;;;;;143734;601;46018;-90
2021/09/01 04:26:24;;;;;;;8.70;4.80;;;;;;;;;;143731;632;46022;-88
2021/09/01 04:28:51;;;;;;;8.95;5.45;;;;;;;;;;143732;599;46012;-88
2021/09/01 04:31:21;;;;;;;13.55;5.47;;;;;;;;;;143734;573;46014;-88
2021/09/01 04:33:48;;;;;;;8.68;5.30;;;;;;;;;;143736;641;46020;-88
2021/09/01 04:36:15;;;;;;;14.07;4.72;;;;;;;;;;143732;576;46051;-89
2021/09/01 04:38:43;;;;;;;9.35;5.28;;;;;;;;;;143733;566;46013;-90
2021/09/01 04:41:11;;;;;;;8.95;5.12;;;;;;;;;;143735;613;46020;-90
2021/09/01 04:43:39;;;;;;;11.43;5.20;;;;;;;;;;143734;574;46012;-89
2021/09/01 04:46:06;;;;;;;18.55;5.37;;;;;;;;;;143729;569;47023;-87
2021/09/01 04:48:34;;;;;;;12.32;5.37;;;;;;;;;;143733;571;46012;-89
2021/09/01 04:51:02;;;;;;;18.12;5.20;;;;;;;;;;143731;577;46020;-87
2021/09/01 04:53:29;;;;;;;10.02;5.28;;;;;;;;;;143734;573;46013;-86
2021/09/01 04:56:03;;;;;;;11.80;6.00;;;;;;;;;;143731;617;46023;-90
2021/09/01 04:58:34;;;;;;;12.75;5.68;;;;;;;;;;143735;584;45021;-89
2021/09/01 05:01:01;;;;;;;15.43;5.78;;;;;;;;;;143733;593;46015;-88
2021/09/01 05:03:42;;;;;;;12.60;5.45;;;;;;;;;;143735;638;46012;-88
2021/09/01 05:06:09;;;;;;;13.77;5.32;;;;;;;;;;143732;600;46022;-89
2021/09/01 05:08:36;;;;;;;6.90;5.03;;;;;;;;;;143731;572;46012;-89
2021/09/01 05:11:03;;;;;;;7.82;5.47;;;;;;;;;;143734;569;46020;-90
2021/09/01 05:13:30;;;;;;;10.75;4.75;;;;;;;;;;143735;587;46012;-91
2021/09/01 05:15:58;;;;;;;11.60;5.57;;;;;;;;;;143733;578;46023;-89
2021/09/01 05:18:27;;;;;;;12.52;5.65;;;;;;;;;;143736;626;45046;-91
2021/09/01 05:20:59;;;;;;;11.35;5.57;;;;;;;;;;143732;618;46020;-89
2021/09/01 05:23:34;;;;;;;14.35;5.68;;;;;;;;;;143734;609;46013;-87
2021/09/01 05:26:04;;;;;;;10.75;5.43;;;;;;;;;;143731;588;46022;-86
2021/09/01 05:28:38;;;;;;;11.43;5.15;;;;;;;;;;143735;576;46020;-89
2021/09/01 05:31:07;;;;;;;19.40;5.68;;;;;;;;;;143733;585;46021;-87
2021/09/01 05:33:42;;;;;;;16.37;5.30;;;;;;;;;;143733;647;46012;-90
2021/09/01 05:36:09;;;;;;;8.73;5.70;;;;;;;;;;143732;616;46022;-88
2021/09/01 05:38:36;;;;;;;9.48;5.28;;;;;;;;;;143732;644;46012;-89
2021/09/01 05:41:07;;;;;;;14.02;5.82;;;;;;;;;;143734;619;46020;-89
2021/09/01 05:43:35;;;;;;;13.43;4.68;;;;;;;;;;143735;564;47019;-89
2021/09/01 05:46:02;;;;;;;16.23;5.50;;;;;;;;;;143735;589;46014;-90
2021/09/01 05:48:30;;;;;;;13.18;5.72;;;;;;;;;;143731;616;46012;-90
2021/09/01 05:50:57;;;;;;;15.38;5.93;;;;;;;;;;143734;566;46023;-88
2021/09/01 05:53:25;;;;;;;12.40;5.45;;;;;;;;;;143734;604;46015;-89
2021/09/01 05:55:53;;;;;;;14.27;5.20;;;;;;;;;;143730;575;47022;-87
2021/09/01 05:58:20;;;;;;;12.35;5.72;;;;;;;;;;143733;641;46012;-91
2021/09/01 06:01:02;;;;;;;11.00;5.22;;;;;;;;;;143733;609;46021;-88
2021/09/01 06:03:33;;;;;;;14.05;5.55;;;;;;;;;;143734;569;46012;-89
2021/09/01 06:06:02;;;;;;;6.95;5.82;;;;;;;;;;143731;566;47022;-87
2021/09/01 06:08:34;;;;;;;11.88;6.37;;;;;;;;;;143730;636;46012;-89
2021/09/01 06:11:04;;;;;;;14.27;6.15;;;;;;;;;;143735;969;46020;-85
2021/09/01 06:13:32;;;;;;;13.88;6.25;;;;;;;;;;143737;974;46013;-86
2021/09/01 06:15:59;;;;;;;9.55;5.80;;;;;;;;;;143731;675;47023;-87
2021/09/01 06:18:26;;;;;;;9.82;6.18;;;;;;;;;;143734;565;46020;-85
2021/09/01 06:20:57;;;;;;;10.57;5.82;;;;;;;;;;143734;565;46020;-85
2021/09/01 06:23:23;;;;;;;10.32;5.70;;;;;;;;;;143738;573;46021;-87
2021/09/01 06:25:50;;;;;;;8.68;6.10;;;;;;;;;;143734;980;46917;-87
2021/09/01 06:28:17;;;;;;;12.32;5.90;;;;;;;;;;143735;688;46012;-88
2021/09/01 06:30:44;;;;;;;7.55;5.18;;;;;;;;;;143733;797;46021;-87
2021/09/01 06:33:11;;;;;;;8.95;5.03;;;;;;;;;;143735;596;46012;-86
2021/09/01 06:35:38;;;;;;;11.05;5.47;;;;;;;;;;143731;733;46022;-89
2021/09/01 06:38:06;;;;;;;7.07;5.47;;;;;;;;;;143734;951;46012;-87
2021/09/01 06:40:33;;;;;;;11.48;5.10;;;;;;;;;;143732;602;46020;-87
2021/09/01 06:42:59;;;;;;;10.15;5.35;;;;;;;;;;143734;979;46012;-89
2021/09/01 06:45:27;;;;;;;5.70;5.10;;;;;;;;;;143732;759;46023;-87
2021/09/01 06:47:55;;;;;;;6.32;4.95;;;;;;;;;;143735;953;46020;-88
2021/09/01 06:50:26;;;;;;;9.57;5.87;;;;;;;;;;143734;577;46015;-88
2021/09/01 06:52:54;;;;;;;10.25;6.22;;;;;;;;;;143733;565;47020;-86
2021/09/01 06:55:25;;;;;;;13.65;6.05;;;;;;;;;;143733;968;46022;-88
2021/09/01 06:57:52;;;;;;;18.35;7.22;;;;;;;;;;143733;837;46020;-87
2021/09/01 07:00:20;;;;;;;12.65;6.55;;;;;;;;;;143734;729;46021;-85
2021/09/01 07:02:46;;;;;;;7.68;5.82;;;;;;;;;;143735;583;46012;-87
2021/09/01 07:05:14;;;;;;;13.18;6.78;;;;;;;;;;143732;615;46022;-86
2021/09/01 07:07:43;;;;;;;10.00;6.10;;;;;;;;;;143734;621;46012;-90
2021/09/01 07:10:11;;;;;;;14.73;8.00;;;;;;;;;;143733;581;47014;-87
2021/09/01 07:12:41;;;;;;;12.35;6.82;;;;;;;;;;143734;596;46019;-85
2021/09/01 07:15:09;;;;;;;18.55;7.30;;;;;;;;;;143735;578;46020;-88
2021/09/01 07:17:37;;;;;;;10.43;6.07;;;;;;;;;;143731;569;46012;-87
2021/09/01 07:20:04;;;;;;;12.80;7.75;;;;;;;;;;143734;574;46020;-87
2021/09/01 07:22:31;;;;;;;16.87;7.97;;;;;;;;;;143733;595;46021;-86
2021/09/01 07:24:58;;;;;;;13.52;7.00;;;;;;;;;;143732;572;46022;-88
2021/09/01 07:27:26;;;;;;;11.55;7.87;;;;;;;;;;143735;588;46012;-86
2021/09/01 07:29:53;;;;;;;12.00;6.93;;;;;;;;;;143733;979;46021;-89
2021/09/01 07:32:20;;;;;;;14.75;7.97;;;;;;;;;;143736;572;46012;-86
2021/09/01 07:34:55;;;;;;;15.13;8.13;;;;;;;;;;143733;583;46022;-85
2021/09/01 07:37:22;;;;;;;12.80;7.72;;;;;;;;;;143732;790;46922;-86
2021/09/01 07:39:49;;;;;;;9.20;7.95;;;;;;;;;;143736;862;46020;-87
2021/09/01 07:42:16;;;;;;;9.82;7.37;;;;;;;;;;143736;588;46033;-88
2021/09/01 07:44:43;;;;;;;10.40;7.55;;;;;;;;;;143733;583;46023;-86
2021/09/01 07:47:10;;;;;;;12.90;7.75;;;;;;;;;;143735;978;46014;-87
2021/09/01 07:49:37;;;;;;;8.70;7.57;;;;;;;;;;143735;589;46020;-86
2021/09/01 07:52:13;;;;;;;12.27;7.95;;;;;;;;;;143735;571;46013;-87
2021/09/01 07:54:41;;;;;;;10.27;7.80;;;;;;;;;;143733;664;46022;-86
2021/09/01 07:57:08;;;;;;;8.85;7.18;;;;;;;;;;143735;567;46049;-86
2021/09/01 07:59:35;;;;;;;10.40;7.10;;;;;;;;;;143734;676;46020;-86
2021/09/01 08:02:02;;;;;;;8.73;7.70;;;;;;;;;;143735;950;46012;-87
2021/09/01 08:04:30;;;;;;;11.80;7.47;;;;;;;;;;143731;980;47022;-86
2021/09/01 08:07:07;;;;;;;13.38;8.07;;;;;;;;;;143731;869;46922;-86
2021/09/01 08:09:41;;;;;;;9.80;7.50;;;;;;;;;;143732;883;46020;-86
2021/09/01 08:12:10;;;;;;;10.50;7.45;;;;;;;;;;143736;570;46013;-87
2021/09/01 08:14:45;;;;;;;11.73;7.87;;;;;;;;;;143735;965;46021;-87
2021/09/01 08:17:15;;;;;;;11.05;6.90;;;;;;;;;;143733;978;46012;-87
2021/09/01 08:19:42;;;;;;;10.95;7.18;;;;;;;;;;143735;594;46020;-86
2021/09/01 08:22:09;;;;;;;7.80;7.03;;;;;;;;;;143735;857;46018;-86
2021/09/01 08:24:38;;;;;;;10.27;7.18;;;;;;;;;;143733;570;47022;-85
2021/09/01 08:27:26;;;;;;;8.48;6.30;;;;;;;;;;143736;571;45921;-86
2021/09/01 08:30:10;;;;;;;13.05;7.00;;;;;;;;;;143738;565;45021;-86
2021/09/01 08:32:37;;;;;;;11.88;6.35;;;;;;;;;;143739;732;45026;-86
2021/09/01 08:35:26;;;;;;;;;;;;;;;;;;;;;
2021/09/01 08:37:54;;;;;;;13.82;6.68;;;;;;;;;;143736;918;46020;-88
2021/09/01 08:40:21;;;;;;;7.97;6.15;;;;;;;;;;143734;587;46047;-86
2021/09/01 08:42:50;;;;;;;8.02;6.78;;;;;;;;;;143735;967;46013;-87
2021/09/01 08:45:17;;;;;;;11.38;6.70;;;;;;;;;;143732;564;46023;-87
2021/09/01 08:47:55;;;;;;;15.35;7.03;;;;;;;;;;143734;972;46012;-86
2021/09/01 08:50:24;;;;;;;7.80;6.50;;;;;;;;;;143736;590;46021;-87
2021/09/01 08:52:51;;;;;;;11.70;6.43;;;;;;;;;;143734;708;46012;-87
2021/09/01 08:55:19;;;;;;;9.63;5.87;;;;;;;;;;143733;980;46022;-87
2021/09/01 08:57:51;;;;;;;7.35;6.50;;;;;;;;;;143732;969;46921;-87
2021/09/01 09:00:21;;;;;;;11.25;7.30;;;;;;;;;;143734;979;46021;-88
2021/09/01 09:02:59;;;;;;;9.98;6.82;;;;;;;;;;143734;624;46012;-85
2021/09/01 09:05:39;;;;;;;7.35;5.53;;;;;;;;;;143733;579;46021;-86
2021/09/01 09:08:22;;;;;;;8.32;6.87;;;;;;;;;;143734;964;46012;-86
2021/09/01 09:10:50;;;;;;;15.20;6.80;;;;;;;;;;143733;568;46020;-86
2021/09/01 09:13:26;;;;;;;10.52;6.75;;;;;;;;;;143736;799;46013;-86
2021/09/01 09:16:07;;;;;;;9.82;7.00;;;;;;;;;;143733;722;47023;-86
2021/09/01 09:18:34;;;;;;;7.65;6.35;;;;;;;;;;143734;572;46012;-86
2021/09/01 09:21:21;;;;;;;8.07;6.28;;;;;;;;;;143734;564;46021;-86
2021/09/01 09:23:50;;;;;;;7.30;6.50;;;;;;;;;;143736;600;46012;-86
2021/09/01 09:26:32;;;;;;;11.15;6.68;;;;;;;;;;143734;579;46022;-86
2021/09/01 09:29:16;;;;;;;14.02;7.03;;;;;;;;;;143735;951;46020;-86
2021/09/01 09:32:07;;;;;;;9.32;6.50;;;;;;;;;;143736;980;46020;-86
2021/09/01 09:34:46;;;;;;;6.85;5.70;;;;;;;;;;143734;595;46013;-86
2021/09/01 09:37:14;;;;;;;10.10;6.22;;;;;;;;;;143734;706;46051;-86
2021/09/01 09:39:51;;;;;;;6.82;6.12;;;;;;;;;;143734;607;46014;-86
2021/09/01 09:42:33;;;;;;;8.93;6.12;;;;;;;;;;143735;569;46020;-88
2021/09/01 09:45:18;;;;;;;8.45;6.22;;;;;;;;;;143739;640;46021;-87
2021/09/01 09:47:48;;;;;;;7.00;6.05;;;;;;;;;;143734;748;46022;-87
2021/09/01 09:50:17;;;;;;;11.50;6.50;;;;;;;;;;143730;566;48013;-87
2021/09/01 09:52:44;;;;;;;10.15;6.20;;;;;;;;;;143732;564;47010;-87
2021/09/01 09:55:15;;;;;;;7.12;6.37;;;;;;;;;;143735;970;46020;-86
2021/09/01 09:57:56;;;;;;;7.85;7.05;;;;;;;;;;143734;880;46022;-87
2021/09/01 10:00:26;;;;;;;7.23;6.57;;;;;;;;;;143733;602;46012;-87
2021/09/01 10:02:52;;;;;;;8.98;6.43;;;;;;;;;;143735;955;46020;-87
2021/09/01 10:05:27;;;;;;;13.25;6.43;;;;;;;;;;143738;605;46018;-86
2021/09/01 10:07:59;;;;;;;7.25;6.32;;;;;;;;;;143736;583;46023;-87
2021/09/01 10:10:27;;;;;;;7.45;6.62;;;;;;;;;;143737;580;45919;-86
2021/09/01 10:12:55;;;;;;;7.05;6.35;;;;;;;;;;143737;564;46021;-85
2021/09/01 10:15:30;;;;;;;10.68;6.80;;;;;;;;;;143735;980;46018;-85
2021/09/01 10:18:01;;;;;;;8.10;6.78;;;;;;;;;;143734;748;46022;-85
2021/09/01 10:20:29;;;;;;;9.35;6.00;;;;;;;;;;143733;711;46013;-84
2021/09/01 10:23:04;;;;;;;7.45;6.22;;;;;;;;;;143735;966;46014;-88
2021/09/01 10:25:56;;;;;;;9.52;5.85;;;;;;;;;;143738;917;46018;-86
2021/09/01 10:28:34;;;;;;;8.35;6.28;;;;;;;;;;143734;666;46025;-86
2021/09/01 10:31:33;;;;;;;11.43;5.72;;;;;;;;;;143733;972;46012;-86
2021/09/01 10:34:20;;;;;;;12.52;6.28;;;;;;;;;;143737;621;46020;-87
2021/09/01 10:36:49;;;;;;;10.88;6.70;;;;;;;;;;143736;569;46014;-85
2021/09/01 10:39:50;;;;;;;11.88;6.75;;;;;;;;;;143733;569;46022;-89
2021/09/01 10:42:42;;;;;;;17.33;6.00;;;;;;;;;;143735;971;46013;-87
2021/09/01 10:45:15;;;;;;;14.10;6.00;;;;;;;;;;143736;587;46020;-85
2021/09/01 10:48:11;;;;;;;7.70;6.03;;;;;;;;;;143737;837;46012;-85
2021/09/01 10:50:43;;;;;;;9.77;6.68;;;;;;;;;;143735;981;46023;-84
2021/09/01 10:53:27;;;;;;;9.85;6.45;;;;;;;;;;143735;575;46012;-87
2021/09/01 10:56:05;;;;;;;8.38;6.50;;;;;;;;;;143736;695;46020;-85
2021/09/01 10:58:44;;;;;;;8.60;6.43;;;;;;;;;;143736;571;46012;-88
2021/09/01 11:01:19;;;;;;;7.12;6.43;;;;;;;;;;143733;585;47022;-87
2021/09/01 11:04:03;;;;;;;7.25;6.10;;;;;;;;;;143735;954;46013;-87
2021/09/01 11:06:35;;;;;;;10.02;5.95;;;;;;;;;;143734;607;46020;-88
2021/09/01 11:09:07;;;;;;;7.10;5.82;;;;;;;;;;143736;581;46012;-92
2021/09/01 11:11:54;;;;;;;7.43;5.72;;;;;;;;;;143736;668;46022;-88
2021/09/01 11:14:42;;;;;;;10.73;6.47;;;;;;;;;;143734;564;47012;-89
2021/09/01 11:17:20;;;;;;;6.47;5.35;;;;;;;;;;143734;583;46020;-89
2021/09/01 11:19:54;;;;;;;9.45;5.90;;;;;;;;;;143734;571;46013;-90
2021/09/01 11:22:26;;;;;;;9.02;5.57;;;;;;;;;;143735;718;47020;-88
2021/09/01 11:25:15;;;;;;;7.75;5.82;;;;;;;;;;143735;566;46012;-91
2021/09/01 11:27:50;;;;;;;6.68;6.00;;;;;;;;;;143738;739;46021;-89
2021/09/01 11:30:17;;;;;;;15.02;5.97;;;;;;;;;;143739;591;46018;-88
2021/09/01 11:32:44;;;;;;;8.43;6.15;;;;;;;;;;143739;593;46022;-90
2021/09/01 11:35:23;;;;;;;11.95;6.45;;;;;;;;;;143733;659;46013;-88
2021/09/01 11:38:08;;;;;;;15.13;6.05;;;;;;;;;;143735;644;46020;-89
2021/09/01 11:40:36;;;;;;;10.63;5.25;;;;;;;;;;143739;577;46012;-88
2021/09/01 11:43:14;;;;;;;10.32;4.93;;;;;;;;;;143735;566;46014;-87
2021/09/01 11:45:51;;;;;;;12.80;5.50;;;;;;;;;;143736;648;46020;-86
2021/09/01 11:48:18;;;;;;;9.88;5.87;;;;;;;;;;143736;686;46020;-86
2021/09/01 11:50:46;;;;;;;9.68;5.87;;;;;;;;;;143737;564;46021;-86
2021/09/01 11:53:16;;;;;;;9.48;6.43;;;;;;;;;;143734;571;46022;-85
2021/09/01 11:55:44;;;;;;;10.68;6.15;;;;;;;;;;143734;565;46021;-87
2021/09/01 11:58:17;;;;;;;10.57;5.82;;;;;;;;;;143736;659;46014;-88
2021/09/01 12:00:48;;;;;;;7.47;5.68;;;;;;;;;;143738;755;46012;-89
2021/09/01 12:03:16;;;;;;;13.02;6.70;;;;;;;;;;143734;626;46022;-86
2021/09/01 12:05:43;;;;;;;7.87;6.40;;;;;;;;;;143734;570;46012;-88
2021/09/01 12:08:20;;;;;;;12.95;6.30;;;;;;;;;;143736;642;46020;-88
2021/09/01 12:10:49;;;;;;;6.53;5.62;;;;;;;;;;143736;577;46019;-87
2021/09/01 12:13:16;;;;;;;7.72;5.72;;;;;;;;;;143735;702;46016;-87
2021/09/01 12:16:02;;;;;;;9.02;5.22;;;;;;;;;;143735;583;46012;-87
2021/09/01 12:19:01;;;;;;;8.15;5.12;;;;;;;;;;143735;642;46021;-86
2021/09/01 12:21:44;;;;;;;7.18;5.20;;;;;;;;;;143740;584;46018;-87
2021/09/01 12:24:21;;;;;;;9.52;5.70;;;;;;;;;;143726;587;48012;-87
2021/09/01 12:27:09;;;;;;;8.07;5.35;;;;;;;;;;143737;581;46021;-87
2021/09/01 12:29:51;;;;;;;6.22;5.10;;;;;;;;;;143736;599;46020;-87
2021/09/01 12:32:22;;;;;;;6.70;5.60;;;;;;;;;;143736;712;46021;-89
2021/09/01 12:34:57;;;;;;;9.55;5.47;;;;;;;;;;143733;564;46916;-86
2021/09/01 12:37:26;;;;;;;8.23;6.18;;;;;;;;;;143735;569;46012;-91
2021/09/01 12:40:13;;;;;;;5.97;4.57;;;;;;;;;;143735;581;46020;-87
2021/09/01 12:42:44;;;;;;;7.55;5.57;;;;;;;;;;143736;572;46015;-88
2021/09/01 12:45:20;;;;;;;6.40;4.70;;;;;;;;;;143734;597;47022;-87
2021/09/01 12:47:58;;;;;;;5.80;5.05;;;;;;;;;;143734;570;46013;-89
2021/09/01 12:50:36;;;;;;;11.07;4.68;;;;;;;;;;143736;610;46021;-88
2021/09/01 12:53:05;;;;;;;5.05;4.40;;;;;;;;;;143736;592;46012;-89
2021/09/01 12:55:41;;;;;;;6.03;4.85;;;;;;;;;;143736;576;47021;-87
2021/09/01 12:58:09;;;;;;;6.55;5.60;;;;;;;;;;143734;586;46012;-88
2021/09/01 13:00:45;;;;;;;6.18;4.80;;;;;;;;;;143737;576;46020;-87
2021/09/01 13:03:14;;;;;;;13.90;5.45;;;;;;;;;;143736;686;46012;-88
2021/09/01 13:05:49;;;;;;;4.57;4.18;;;;;;;;;;143732;591;46023;-88
2021/09/01 13:08:18;;;;;;;4.90;3.85;;;;;;;;;;143738;586;45020;-89
2021/09/01 13:10:45;;;;;;;5.53;4.37;;;;;;;;;;143736;580;46021;-89
2021/09/01 13:13:12;;;;;;;7.97;4.10;;;;;;;;;;143739;594;46021;-87
2021/09/01 13:15:41;;;;;;;5.30;4.57;;;;;;;;;;143738;649;46014;-88
2021/09/01 13:18:12;;;;;;;9.00;4.68;;;;;;;;;;143738;571;45021;-93
2021/09/01 13:20:44;;;;;;;5.43;4.25;;;;;;;;;;143738;693;46020;-88
2021/09/01 13:23:12;;;;;;;6.97;3.62;;;;;;;;;;143737;635;46012;-87
2021/09/01 13:25:39;;;;;;;4.50;3.92;;;;;;;;;;143735;694;46021;-87
2021/09/01 13:28:06;;;;;;;6.75;3.50;;;;;;;;;;143732;653;46012;-87
2021/09/01 13:30:33;;;;;;;5.35;3.85;;;;;;;;;;143736;588;47018;-87
2021/09/01 13:33:03;;;;;;;5.30;3.95;;;;;;;;;;143735;575;46013;-87
2021/09/01 13:35:36;;;;;;;5.47;3.40;;;;;;;;;;143737;648;46023;-88
2021/09/01 13:38:06;;;;;;;6.68;4.07;;;;;;;;;;143735;579;46012;-88
2021/09/01 13:40:36;;;;;;;5.12;3.42;;;;;;;;;;143736;597;46020;-88
2021/09/01 13:43:03;;;;;;;7.87;3.80;;;;;;;;;;143736;598;46012;-86
2021/09/01 13:45:31;;;;;;;6.60;3.00;;;;;;;;;;143732;564;46022;-88
2021/09/01 13:47:58;;;;;;;5.97;3.60;;;;;;;;;;143733;608;46012;-86
2021/09/01 13:50:24;;;;;;;6.55;3.15;;;;;;;;;;143735;573;46021;-88
2021/09/01 13:52:52;;;;;;;7.03;3.80;;;;;;;;;;143736;615;46012;-86
2021/09/01 13:55:20;;;;;;;11.12;6.05;;;;;;;;;;143731;571;46027;-90
2021/09/01 13:57:47;;;;;;;4.05;3.65;;;;;;;;;;143732;583;46021;-88
2021/09/01 14:00:17;;;;;;;4.65;3.55;;;;;;;;;;143734;579;46020;-87
2021/09/01 14:02:50;;;;;;;6.68;3.47;;;;;;;;;;143734;599;46012;-88
2021/09/01 14:05:17;;;;;;;6.03;3.62;;;;;;;;;;143732;591;46023;-89
2021/09/01 14:07:48;;;;;;;9.43;3.60;;;;;;;;;;143731;590;46921;-89
2021/09/01 14:10:16;;;;;;;4.70;3.20;;;;;;;;;;143734;596;46021;-88
2021/09/01 14:12:42;;;;;;;9.80;3.47;;;;;;;;;;143735;579;46018;-89
2021/09/01 14:15:10;;;;;;;4.25;3.50;;;;;;;;;;143731;569;47022;-88
2021/09/01 14:17:38;;;;;;;6.93;3.10;;;;;;;;;;143731;614;46021;-89
2021/09/01 14:20:06;;;;;;;4.55;3.17;;;;;;;;;;143733;748;46021;-86
2021/09/01 14:22:34;;;;;;;8.65;3.62;;;;;;;;;;143733;564;46012;-89
2021/09/01 14:25:00;;;;;;;4.75;2.92;;;;;;;;;;143735;592;46014;-87
2021/09/01 14:27:27;;;;;;;4.87;3.47;;;;;;;;;;143731;593;46012;-88
2021/09/01 14:29:56;;;;;;;6.03;3.45;;;;;;;;;;143732;594;47020;-86
2021/09/01 14:32:23;;;;;;;18.40;3.50;;;;;;;;;;143736;575;46012;-88
2021/09/01 14:34:54;;;;;;;5.07;3.55;;;;;;;;;;143732;593;46023;-83
2021/09/01 14:37:21;;;;;;;4.55;3.30;;;;;;;;;;143734;587;46012;-86
2021/09/01 14:39:48;;;;;;;5.03;2.92;;;;;;;;;;143734;572;46020;-87
2021/09/01 14:42:17;;;;;;;4.87;3.10;;;;;;;;;;143734;595;46012;-88
2021/09/01 14:44:45;;;;;;;7.97;4.07;;;;;;;;;;143731;596;47022;-86
2021/09/01 14:47:11;;;;;;;5.87;3.58;;;;;;;;;;143734;576;46012;-86
2021/09/01 14:49:38;;;;;;;4.32;2.90;;;;;;;;;;143732;674;47021;-89
2021/09/01 14:52:06;;;;;;;3.85;2.95;;;;;;;;;;143735;590;46012;-87
2021/09/01 14:54:33;;;;;;;8.82;3.53;;;;;;;;;;143732;590;46022;-87
2021/09/01 14:57:00;;;;;;;4.25;3.37;;;;;;;;;;143732;569;46013;-88
2021/09/01 14:59:27;;;;;;;3.42;2.85;;;;;;;;;;143735;582;46020;-88